sensor_id;sensor_type;location;lat;lon;timestamp;temperature;humidity
20284;DHT22;10301;50.832;4.080;2023-07-31T00:00:52;18.20;98.70
20284;DHT22;10301;50.832;4.080;2023-07-31T00:03:18;18.40;96.50
20284;DHT22;10301;50.832;4.080;2023-07-31T00:05:44;18.20;99.50
20284;DHT22;10301;50.832;4.080;2023-07-31T00:08:11;18.10;99.90
20284;DHT22;10301;50.832;4.080;2023-07-31T00:10:36;18.10;99.90
20284;DHT22;10301;50.832;4.080;2023-07-31T00:13:02;18.00;99.90
20284;DHT22;10301;50.832;4.080;2023-07-31T00:15:28;18.10;99.90
20284;DHT22;10301;50.832;4.080;2023-07-31T00:17:53;18.00;99.90
20284;DHT22;10301;50.832;4.080;2023-07-31T00:20:19;17.90;99.90
20284;DHT22;10301;50.832;4.080;2023-07-31T00:22:45;17.80;99.90
20284;DHT22;10301;50.832;4.080;2023-07-31T00:25:10;17.70;99.90
20284;DHT22;10301;50.832;4.080;2023-07-31T00:27:36;17.80;99.90
20284;DHT22;10301;50.832;4.080;2023-07-31T00:30:02;17.80;99.90
20284;DHT22;10301;50.832;4.080;2023-07-31T00:32:28;17.80;99.90
20284;DHT22;10301;50.832;4.080;2023-07-31T00:34:54;17.70;99.90
20284;DHT22;10301;50.832;4.080;2023-07-31T00:37:19;17.70;99.90
20284;DHT22;10301;50.832;4.080;2023-07-31T00:39:45;17.70;99.90
20284;DHT22;10301;50.832;4.080;2023-07-31T00:42:10;17.70;99.90
20284;DHT22;10301;50.832;4.080;2023-07-31T00:44:36;17.80;99.90
20284;DHT22;10301;50.832;4.080;2023-07-31T00:47:02;17.80;99.90
20284;DHT22;10301;50.832;4.080;2023-07-31T00:49:27;17.80;99.90
20284;DHT22;10301;50.832;4.080;2023-07-31T00:51:53;17.80;99.90
20284;DHT22;10301;50.832;4.080;2023-07-31T00:54:19;17.70;99.90
20284;DHT22;10301;50.832;4.080;2023-07-31T00:56:46;17.60;99.90
20284;DHT22;10301;50.832;4.080;2023-07-31T00:59:14;17.60;99.90
20284;DHT22;10301;50.832;4.080;2023-07-31T01:01:40;17.60;99.90
20284;DHT22;10301;50.832;4.080;2023-07-31T01:04:06;17.70;99.90
20284;DHT22;10301;50.832;4.080;2023-07-31T01:06:36;17.60;99.90
20284;DHT22;10301;50.832;4.080;2023-07-31T01:09:39;17.60;99.90
20284;DHT22;10301;50.832;4.080;2023-07-31T01:12:03;17.60;99.90
20284;DHT22;10301;50.832;4.080;2023-07-31T01:14:29;17.70;99.90
20284;DHT22;10301;50.832;4.080;2023-07-31T01:16:55;17.70;99.90
20284;DHT22;10301;50.832;4.080;2023-07-31T01:19:26;17.70;99.90
20284;DHT22;10301;50.832;4.080;2023-07-31T01:25:11;17.70;99.90
20284;DHT22;10301;50.832;4.080;2023-07-31T01:27:46;17.60;99.90
20284;DHT22;10301;50.832;4.080;2023-07-31T01:30:17;17.70;99.90
20284;DHT22;10301;50.832;4.080;2023-07-31T01:32:47;17.70;99.90
20284;DHT22;10301;50.832;4.080;2023-07-31T01:35:13;17.70;99.90
20284;DHT22;10301;50.832;4.080;2023-07-31T01:37:39;17.80;99.90
20284;DHT22;10301;50.832;4.080;2023-07-31T01:40:07;17.70;99.90
20284;DHT22;10301;50.832;4.080;2023-07-31T01:42:33;17.70;99.90
20284;DHT22;10301;50.832;4.080;2023-07-31T01:44:58;17.80;99.90
20284;DHT22;10301;50.832;4.080;2023-07-31T01:47:24;17.90;99.90
20284;DHT22;10301;50.832;4.080;2023-07-31T01:49:50;17.90;99.90
20284;DHT22;10301;50.832;4.080;2023-07-31T01:52:15;18.10;99.90
20284;DHT22;10301;50.832;4.080;2023-07-31T01:54:41;17.90;99.90
20284;DHT22;10301;50.832;4.080;2023-07-31T01:57:07;18.10;99.90
20284;DHT22;10301;50.832;4.080;2023-07-31T01:59:32;18.20;99.90
20284;DHT22;10301;50.832;4.080;2023-07-31T02:01:58;18.00;99.90
20284;DHT22;10301;50.832;4.080;2023-07-31T02:04:24;17.80;99.90
20284;DHT22;10301;50.832;4.080;2023-07-31T02:06:49;17.80;99.90
20284;DHT22;10301;50.832;4.080;2023-07-31T02:09:15;17.80;99.90
20284;DHT22;10301;50.832;4.080;2023-07-31T02:11:40;17.80;99.90
20284;DHT22;10301;50.832;4.080;2023-07-31T02:14:06;17.90;99.90
20284;DHT22;10301;50.832;4.080;2023-07-31T02:16:32;18.00;99.90
20284;DHT22;10301;50.832;4.080;2023-07-31T02:18:57;18.10;99.90
20284;DHT22;10301;50.832;4.080;2023-07-31T02:21:23;18.10;99.90
20284;DHT22;10301;50.832;4.080;2023-07-31T02:23:49;17.90;99.90
20284;DHT22;10301;50.832;4.080;2023-07-31T02:26:14;17.90;99.90
20284;DHT22;10301;50.832;4.080;2023-07-31T02:28:40;17.80;99.90
20284;DHT22;10301;50.832;4.080;2023-07-31T02:31:08;17.80;99.90
20284;DHT22;10301;50.832;4.080;2023-07-31T02:33:34;18.00;99.90
20284;DHT22;10301;50.832;4.080;2023-07-31T02:35:59;18.00;99.90
20284;DHT22;10301;50.832;4.080;2023-07-31T02:38:25;17.80;99.90
20284;DHT22;10301;50.832;4.080;2023-07-31T02:40:50;17.90;99.90
20284;DHT22;10301;50.832;4.080;2023-07-31T02:43:16;17.90;99.90
20284;DHT22;10301;50.832;4.080;2023-07-31T02:45:42;18.00;99.90
20284;DHT22;10301;50.832;4.080;2023-07-31T02:48:07;18.00;99.90
20284;DHT22;10301;50.832;4.080;2023-07-31T02:50:33;17.80;99.90
20284;DHT22;10301;50.832;4.080;2023-07-31T02:52:59;17.90;99.90
20284;DHT22;10301;50.832;4.080;2023-07-31T02:55:24;18.00;99.90
20284;DHT22;10301;50.832;4.080;2023-07-31T02:57:50;18.10;99.90
20284;DHT22;10301;50.832;4.080;2023-07-31T03:00:17;18.10;99.90
20284;DHT22;10301;50.832;4.080;2023-07-31T03:02:43;18.00;99.90
20284;DHT22;10301;50.832;4.080;2023-07-31T03:05:08;17.90;99.90
20284;DHT22;10301;50.832;4.080;2023-07-31T03:07:34;17.80;99.90
20284;DHT22;10301;50.832;4.080;2023-07-31T03:10:00;17.60;99.90
20284;DHT22;10301;50.832;4.080;2023-07-31T03:12:26;17.50;99.90
20284;DHT22;10301;50.832;4.080;2023-07-31T03:14:52;17.50;99.90
20284;DHT22;10301;50.832;4.080;2023-07-31T03:17:18;17.40;99.90
20284;DHT22;10301;50.832;4.080;2023-07-31T03:19:44;17.40;99.90
20284;DHT22;10301;50.832;4.080;2023-07-31T03:22:09;17.40;99.90
20284;DHT22;10301;50.832;4.080;2023-07-31T03:24:35;17.50;99.90
20284;DHT22;10301;50.832;4.080;2023-07-31T03:27:00;17.70;99.90
20284;DHT22;10301;50.832;4.080;2023-07-31T03:29:26;17.80;99.90
20284;DHT22;10301;50.832;4.080;2023-07-31T03:31:51;17.80;99.90
20284;DHT22;10301;50.832;4.080;2023-07-31T03:34:17;18.00;99.90
20284;DHT22;10301;50.832;4.080;2023-07-31T03:36:43;17.90;99.90
20284;DHT22;10301;50.832;4.080;2023-07-31T03:39:09;17.80;99.90
20284;DHT22;10301;50.832;4.080;2023-07-31T03:41:35;17.90;99.90
20284;DHT22;10301;50.832;4.080;2023-07-31T03:44:00;17.90;99.90
20284;DHT22;10301;50.832;4.080;2023-07-31T03:46:26;17.80;99.90
20284;DHT22;10301;50.832;4.080;2023-07-31T03:48:52;17.80;99.90
20284;DHT22;10301;50.832;4.080;2023-07-31T03:51:18;17.80;99.90
20284;DHT22;10301;50.832;4.080;2023-07-31T03:53:44;17.70;99.90
20284;DHT22;10301;50.832;4.080;2023-07-31T03:56:10;17.70;99.90
20284;DHT22;10301;50.832;4.080;2023-07-31T03:58:36;17.40;99.90
20284;DHT22;10301;50.832;4.080;2023-07-31T04:01:03;17.20;99.90
20284;DHT22;10301;50.832;4.080;2023-07-31T04:03:29;17.10;99.90
20284;DHT22;10301;50.832;4.080;2023-07-31T04:05:55;17.20;99.90
20284;DHT22;10301;50.832;4.080;2023-07-31T04:08:24;17.20;99.90
20284;DHT22;10301;50.832;4.080;2023-07-31T04:10:50;17.30;99.90
20284;DHT22;10301;50.832;4.080;2023-07-31T04:13:16;17.40;99.90
20284;DHT22;10301;50.832;4.080;2023-07-31T04:15:41;17.30;99.90
20284;DHT22;10301;50.832;4.080;2023-07-31T04:18:07;17.20;99.90
20284;DHT22;10301;50.832;4.080;2023-07-31T04:20:33;17.30;99.90
20284;DHT22;10301;50.832;4.080;2023-07-31T04:22:58;17.40;99.90
20284;DHT22;10301;50.832;4.080;2023-07-31T04:25:24;17.40;99.90
20284;DHT22;10301;50.832;4.080;2023-07-31T04:27:49;17.20;99.90
20284;DHT22;10301;50.832;4.080;2023-07-31T04:30:15;17.20;99.90
20284;DHT22;10301;50.832;4.080;2023-07-31T04:32:41;17.40;99.90
20284;DHT22;10301;50.832;4.080;2023-07-31T04:35:07;17.40;99.90
20284;DHT22;10301;50.832;4.080;2023-07-31T04:37:32;17.50;99.90
20284;DHT22;10301;50.832;4.080;2023-07-31T04:39:58;17.40;99.90
20284;DHT22;10301;50.832;4.080;2023-07-31T04:42:24;17.40;99.90
20284;DHT22;10301;50.832;4.080;2023-07-31T04:44:49;17.50;99.90
20284;DHT22;10301;50.832;4.080;2023-07-31T04:47:15;17.60;99.90
20284;DHT22;10301;50.832;4.080;2023-07-31T04:49:40;17.40;99.90
20284;DHT22;10301;50.832;4.080;2023-07-31T04:52:06;17.30;99.90
20284;DHT22;10301;50.832;4.080;2023-07-31T04:54:32;17.20;99.90
20284;DHT22;10301;50.832;4.080;2023-07-31T04:56:57;17.30;99.90
20284;DHT22;10301;50.832;4.080;2023-07-31T04:59:23;17.30;99.90
20284;DHT22;10301;50.832;4.080;2023-07-31T05:01:49;17.10;99.90
20284;DHT22;10301;50.832;4.080;2023-07-31T05:04:15;17.00;99.90
20284;DHT22;10301;50.832;4.080;2023-07-31T05:06:41;16.90;99.90
20284;DHT22;10301;50.832;4.080;2023-07-31T05:09:07;16.90;99.90
20284;DHT22;10301;50.832;4.080;2023-07-31T05:11:34;16.90;99.90
20284;DHT22;10301;50.832;4.080;2023-07-31T05:14:00;16.80;99.90
20284;DHT22;10301;50.832;4.080;2023-07-31T05:16:26;16.90;99.90
20284;DHT22;10301;50.832;4.080;2023-07-31T05:18:51;16.90;99.90
20284;DHT22;10301;50.832;4.080;2023-07-31T05:21:17;16.90;99.90
20284;DHT22;10301;50.832;4.080;2023-07-31T05:23:42;16.90;99.90
20284;DHT22;10301;50.832;4.080;2023-07-31T05:26:08;17.00;99.90
20284;DHT22;10301;50.832;4.080;2023-07-31T05:28:37;17.00;99.90
20284;DHT22;10301;50.832;4.080;2023-07-31T05:31:04;17.00;99.90
20284;DHT22;10301;50.832;4.080;2023-07-31T05:33:30;17.00;99.90
20284;DHT22;10301;50.832;4.080;2023-07-31T05:35:56;17.00;99.90
20284;DHT22;10301;50.832;4.080;2023-07-31T05:38:22;16.90;99.90
20284;DHT22;10301;50.832;4.080;2023-07-31T05:40:48;17.00;99.90
20284;DHT22;10301;50.832;4.080;2023-07-31T05:43:13;17.10;99.90
20284;DHT22;10301;50.832;4.080;2023-07-31T05:45:41;17.10;99.90
20284;DHT22;10301;50.832;4.080;2023-07-31T05:48:07;17.30;99.90
20284;DHT22;10301;50.832;4.080;2023-07-31T05:50:33;17.10;99.90
20284;DHT22;10301;50.832;4.080;2023-07-31T05:52:58;17.10;99.90
20284;DHT22;10301;50.832;4.080;2023-07-31T05:55:24;17.00;99.90
20284;DHT22;10301;50.832;4.080;2023-07-31T05:57:53;17.20;99.90
20284;DHT22;10301;50.832;4.080;2023-07-31T06:00:18;17.30;99.90
20284;DHT22;10301;50.832;4.080;2023-07-31T06:02:44;17.20;99.90
20284;DHT22;10301;50.832;4.080;2023-07-31T06:05:10;17.30;99.90
20284;DHT22;10301;50.832;4.080;2023-07-31T06:07:35;17.20;99.90
20284;DHT22;10301;50.832;4.080;2023-07-31T06:10:01;17.20;99.90
20284;DHT22;10301;50.832;4.080;2023-07-31T06:12:31;17.20;99.90
20284;DHT22;10301;50.832;4.080;2023-07-31T06:14:57;17.30;99.90
20284;DHT22;10301;50.832;4.080;2023-07-31T06:17:23;17.30;99.90
20284;DHT22;10301;50.832;4.080;2023-07-31T06:19:49;17.30;99.90
20284;DHT22;10301;50.832;4.080;2023-07-31T06:22:15;17.30;99.90
20284;DHT22;10301;50.832;4.080;2023-07-31T06:24:40;17.40;99.90
20284;DHT22;10301;50.832;4.080;2023-07-31T06:27:06;17.50;99.90
20284;DHT22;10301;50.832;4.080;2023-07-31T06:29:32;17.40;99.90
20284;DHT22;10301;50.832;4.080;2023-07-31T06:31:58;17.40;99.90
20284;DHT22;10301;50.832;4.080;2023-07-31T06:34:23;17.40;99.90
20284;DHT22;10301;50.832;4.080;2023-07-31T06:36:49;17.40;99.90
20284;DHT22;10301;50.832;4.080;2023-07-31T06:39:15;17.50;99.90
20284;DHT22;10301;50.832;4.080;2023-07-31T06:41:41;17.80;99.90
20284;DHT22;10301;50.832;4.080;2023-07-31T06:44:07;17.90;99.90
20284;DHT22;10301;50.832;4.080;2023-07-31T06:46:32;18.10;99.90
20284;DHT22;10301;50.832;4.080;2023-07-31T06:48:58;18.20;99.90
20284;DHT22;10301;50.832;4.080;2023-07-31T06:51:23;18.30;99.90
20284;DHT22;10301;50.832;4.080;2023-07-31T06:53:49;18.30;99.90
20284;DHT22;10301;50.832;4.080;2023-07-31T06:56:15;18.30;99.90
20284;DHT22;10301;50.832;4.080;2023-07-31T06:58:40;18.40;99.90
20284;DHT22;10301;50.832;4.080;2023-07-31T07:01:06;18.60;99.90
20284;DHT22;10301;50.832;4.080;2023-07-31T07:03:32;18.40;99.90
20284;DHT22;10301;50.832;4.080;2023-07-31T07:05:58;18.40;99.90
20284;DHT22;10301;50.832;4.080;2023-07-31T07:08:24;18.40;99.90
20284;DHT22;10301;50.832;4.080;2023-07-31T07:10:50;18.50;99.90
20284;DHT22;10301;50.832;4.080;2023-07-31T07:13:15;18.30;99.90
20284;DHT22;10301;50.832;4.080;2023-07-31T07:15:47;18.30;99.90
20284;DHT22;10301;50.832;4.080;2023-07-31T07:18:13;18.20;99.90
20284;DHT22;10301;50.832;4.080;2023-07-31T07:20:39;18.30;99.90
20284;DHT22;10301;50.832;4.080;2023-07-31T07:23:05;18.30;99.90
20284;DHT22;10301;50.832;4.080;2023-07-31T07:25:31;18.40;99.90
20284;DHT22;10301;50.832;4.080;2023-07-31T07:27:57;18.50;99.90
20284;DHT22;10301;50.832;4.080;2023-07-31T07:30:23;18.60;99.90
20284;DHT22;10301;50.832;4.080;2023-07-31T07:32:50;18.70;99.90
20284;DHT22;10301;50.832;4.080;2023-07-31T07:35:16;18.70;99.90
20284;DHT22;10301;50.832;4.080;2023-07-31T07:37:41;18.70;99.90
20284;DHT22;10301;50.832;4.080;2023-07-31T07:40:08;18.60;99.90
20284;DHT22;10301;50.832;4.080;2023-07-31T07:42:33;18.60;99.90
20284;DHT22;10301;50.832;4.080;2023-07-31T07:44:59;18.80;99.90
20284;DHT22;10301;50.832;4.080;2023-07-31T07:47:25;18.60;99.90
20284;DHT22;10301;50.832;4.080;2023-07-31T07:49:50;18.60;99.90
20284;DHT22;10301;50.832;4.080;2023-07-31T07:52:16;18.70;99.90
20284;DHT22;10301;50.832;4.080;2023-07-31T07:54:41;18.80;99.40
20284;DHT22;10301;50.832;4.080;2023-07-31T07:57:07;18.70;99.90
20284;DHT22;10301;50.832;4.080;2023-07-31T07:59:33;18.60;99.90
20284;DHT22;10301;50.832;4.080;2023-07-31T08:01:58;18.80;99.90
20284;DHT22;10301;50.832;4.080;2023-07-31T08:04:24;19.00;98.10
20284;DHT22;10301;50.832;4.080;2023-07-31T08:06:50;19.00;99.20
20284;DHT22;10301;50.832;4.080;2023-07-31T08:09:15;19.10;99.90
20284;DHT22;10301;50.832;4.080;2023-07-31T08:11:41;18.90;99.90
20284;DHT22;10301;50.832;4.080;2023-07-31T08:14:06;18.70;99.90
20284;DHT22;10301;50.832;4.080;2023-07-31T08:16:32;18.80;99.90
20284;DHT22;10301;50.832;4.080;2023-07-31T08:18:58;18.90;99.90
20284;DHT22;10301;50.832;4.080;2023-07-31T08:21:24;18.90;99.90
20284;DHT22;10301;50.832;4.080;2023-07-31T08:23:49;18.90;99.90
20284;DHT22;10301;50.832;4.080;2023-07-31T08:26:19;19.00;99.90
20284;DHT22;10301;50.832;4.080;2023-07-31T08:28:44;19.00;99.90
20284;DHT22;10301;50.832;4.080;2023-07-31T08:31:11;18.80;99.90
20284;DHT22;10301;50.832;4.080;2023-07-31T08:33:37;18.80;99.90
20284;DHT22;10301;50.832;4.080;2023-07-31T08:36:03;18.70;99.90
20284;DHT22;10301;50.832;4.080;2023-07-31T08:38:29;18.60;99.90
20284;DHT22;10301;50.832;4.080;2023-07-31T08:40:57;18.60;99.90
20284;DHT22;10301;50.832;4.080;2023-07-31T08:43:25;18.60;99.90
20284;DHT22;10301;50.832;4.080;2023-07-31T08:45:52;18.60;99.90
20284;DHT22;10301;50.832;4.080;2023-07-31T08:48:20;18.50;99.90
20284;DHT22;10301;50.832;4.080;2023-07-31T08:50:46;18.50;99.90
20284;DHT22;10301;50.832;4.080;2023-07-31T08:53:11;18.50;99.90
20284;DHT22;10301;50.832;4.080;2023-07-31T08:55:38;18.60;99.90
20284;DHT22;10301;50.832;4.080;2023-07-31T08:58:04;18.80;99.90
20284;DHT22;10301;50.832;4.080;2023-07-31T09:00:32;18.60;99.90
20284;DHT22;10301;50.832;4.080;2023-07-31T09:03:08;18.50;99.90
20284;DHT22;10301;50.832;4.080;2023-07-31T09:05:36;18.80;99.90
20284;DHT22;10301;50.832;4.080;2023-07-31T09:08:03;18.80;99.90
20284;DHT22;10301;50.832;4.080;2023-07-31T09:10:29;19.10;99.90
20284;DHT22;10301;50.832;4.080;2023-07-31T09:12:56;19.20;99.90
20284;DHT22;10301;50.832;4.080;2023-07-31T09:15:22;19.20;99.90
20284;DHT22;10301;50.832;4.080;2023-07-31T09:17:59;19.20;99.90
20284;DHT22;10301;50.832;4.080;2023-07-31T09:20:25;19.10;99.90
20284;DHT22;10301;50.832;4.080;2023-07-31T09:22:51;18.90;99.90
20284;DHT22;10301;50.832;4.080;2023-07-31T09:25:22;18.80;99.90
20284;DHT22;10301;50.832;4.080;2023-07-31T09:30:22;18.70;99.90
20284;DHT22;10301;50.832;4.080;2023-07-31T09:32:49;18.60;99.90
20284;DHT22;10301;50.832;4.080;2023-07-31T09:35:28;18.60;99.90
20284;DHT22;10301;50.832;4.080;2023-07-31T09:37:57;18.80;99.90
20284;DHT22;10301;50.832;4.080;2023-07-31T09:40:31;19.00;99.90
20284;DHT22;10301;50.832;4.080;2023-07-31T09:43:02;18.90;99.90
20284;DHT22;10301;50.832;4.080;2023-07-31T09:45:28;18.70;99.90
20284;DHT22;10301;50.832;4.080;2023-07-31T09:47:55;18.80;99.90
20284;DHT22;10301;50.832;4.080;2023-07-31T09:50:23;18.90;99.90
20284;DHT22;10301;50.832;4.080;2023-07-31T09:52:50;19.00;99.90
20284;DHT22;10301;50.832;4.080;2023-07-31T09:55:16;19.20;99.90
20284;DHT22;10301;50.832;4.080;2023-07-31T09:57:45;19.40;99.90
20284;DHT22;10301;50.832;4.080;2023-07-31T10:00:13;19.60;99.90
20284;DHT22;10301;50.832;4.080;2023-07-31T10:02:39;19.70;99.90
20284;DHT22;10301;50.832;4.080;2023-07-31T10:05:06;19.70;99.90
20284;DHT22;10301;50.832;4.080;2023-07-31T10:07:39;19.80;99.90
20284;DHT22;10301;50.832;4.080;2023-07-31T10:10:07;19.90;99.90
20284;DHT22;10301;50.832;4.080;2023-07-31T10:12:33;19.90;99.90
20284;DHT22;10301;50.832;4.080;2023-07-31T10:15:00;19.60;99.90
20284;DHT22;10301;50.832;4.080;2023-07-31T10:17:26;19.70;99.90
20284;DHT22;10301;50.832;4.080;2023-07-31T10:19:53;19.70;99.90
20284;DHT22;10301;50.832;4.080;2023-07-31T10:22:22;20.00;99.90
20284;DHT22;10301;50.832;4.080;2023-07-31T10:24:48;20.10;99.90
20284;DHT22;10301;50.832;4.080;2023-07-31T10:27:15;20.10;99.90
20284;DHT22;10301;50.832;4.080;2023-07-31T10:29:43;20.20;99.90
20284;DHT22;10301;50.832;4.080;2023-07-31T10:32:11;19.80;99.90
20284;DHT22;10301;50.832;4.080;2023-07-31T10:34:39;19.40;99.90
20284;DHT22;10301;50.832;4.080;2023-07-31T10:37:31;19.60;99.90
20284;DHT22;10301;50.832;4.080;2023-07-31T10:40:03;20.20;99.90
20284;DHT22;10301;50.832;4.080;2023-07-31T10:42:30;20.40;99.90
20284;DHT22;10301;50.832;4.080;2023-07-31T10:45:01;20.20;99.60
20284;DHT22;10301;50.832;4.080;2023-07-31T10:47:27;20.50;98.80
20284;DHT22;10301;50.832;4.080;2023-07-31T10:50:15;20.50;98.20
20284;DHT22;10301;50.832;4.080;2023-07-31T10:52:46;20.60;97.50
20284;DHT22;10301;50.832;4.080;2023-07-31T10:55:31;20.70;94.70
20284;DHT22;10301;50.832;4.080;2023-07-31T10:58:05;20.70;93.30
20284;DHT22;10301;50.832;4.080;2023-07-31T11:00:31;21.00;91.20
20284;DHT22;10301;50.832;4.080;2023-07-31T11:03:08;21.20;88.20
20284;DHT22;10301;50.832;4.080;2023-07-31T11:08:23;20.70;93.80
20284;DHT22;10301;50.832;4.080;2023-07-31T11:11:12;21.00;90.80
20284;DHT22;10301;50.832;4.080;2023-07-31T11:16:17;20.80;93.60
20284;DHT22;10301;50.832;4.080;2023-07-31T11:18:44;20.50;97.60
20284;DHT22;10301;50.832;4.080;2023-07-31T11:21:15;20.40;99.90
20284;DHT22;10301;50.832;4.080;2023-07-31T11:23:41;20.40;99.90
20284;DHT22;10301;50.832;4.080;2023-07-31T11:26:07;20.20;99.90
20284;DHT22;10301;50.832;4.080;2023-07-31T11:28:34;20.40;99.90
20284;DHT22;10301;50.832;4.080;2023-07-31T11:31:01;20.20;99.90
20284;DHT22;10301;50.832;4.080;2023-07-31T11:33:27;20.10;99.90
20284;DHT22;10301;50.832;4.080;2023-07-31T11:35:53;20.00;99.90
20284;DHT22;10301;50.832;4.080;2023-07-31T11:38:23;20.10;99.90
20284;DHT22;10301;50.832;4.080;2023-07-31T11:40:49;20.00;99.90
20284;DHT22;10301;50.832;4.080;2023-07-31T11:43:15;20.10;99.90
20284;DHT22;10301;50.832;4.080;2023-07-31T11:45:48;20.00;99.90
20284;DHT22;10301;50.832;4.080;2023-07-31T11:48:25;20.10;99.90
20284;DHT22;10301;50.832;4.080;2023-07-31T11:50:53;20.10;99.90
20284;DHT22;10301;50.832;4.080;2023-07-31T11:53:28;20.40;99.60
20284;DHT22;10301;50.832;4.080;2023-07-31T11:55:57;20.40;98.90
20284;DHT22;10301;50.832;4.080;2023-07-31T11:58:24;20.50;97.90
20284;DHT22;10301;50.832;4.080;2023-07-31T12:00:51;20.40;97.10
20284;DHT22;10301;50.832;4.080;2023-07-31T12:03:18;20.50;96.70
20284;DHT22;10301;50.832;4.080;2023-07-31T12:05:43;20.30;96.60
20284;DHT22;10301;50.832;4.080;2023-07-31T12:08:11;20.20;97.40
20284;DHT22;10301;50.832;4.080;2023-07-31T12:10:37;20.30;98.40
20284;DHT22;10301;50.832;4.080;2023-07-31T12:13:08;20.20;97.80
20284;DHT22;10301;50.832;4.080;2023-07-31T12:15:43;20.10;99.30
20284;DHT22;10301;50.832;4.080;2023-07-31T12:18:14;20.30;98.50
20284;DHT22;10301;50.832;4.080;2023-07-31T12:20:44;20.50;96.60
20284;DHT22;10301;50.832;4.080;2023-07-31T12:23:15;20.50;96.40
20284;DHT22;10301;50.832;4.080;2023-07-31T12:25:40;20.50;95.90
20284;DHT22;10301;50.832;4.080;2023-07-31T12:28:07;20.40;96.70
20284;DHT22;10301;50.832;4.080;2023-07-31T12:30:40;20.60;97.80
20284;DHT22;10301;50.832;4.080;2023-07-31T12:33:15;20.80;98.80
20284;DHT22;10301;50.832;4.080;2023-07-31T12:35:46;20.70;98.10
20284;DHT22;10301;50.832;4.080;2023-07-31T12:38:15;20.90;96.10
20284;DHT22;10301;50.832;4.080;2023-07-31T12:40:41;20.80;97.00
20284;DHT22;10301;50.832;4.080;2023-07-31T12:43:07;20.90;96.80
20284;DHT22;10301;50.832;4.080;2023-07-31T12:45:33;20.50;99.90
20284;DHT22;10301;50.832;4.080;2023-07-31T12:48:00;20.70;99.60
20284;DHT22;10301;50.832;4.080;2023-07-31T12:50:26;20.30;99.90
20284;DHT22;10301;50.832;4.080;2023-07-31T12:52:56;20.10;99.90
20284;DHT22;10301;50.832;4.080;2023-07-31T12:55:23;20.00;99.90
20284;DHT22;10301;50.832;4.080;2023-07-31T12:57:50;19.70;99.90
20284;DHT22;10301;50.832;4.080;2023-07-31T13:00:16;19.70;99.90
20284;DHT22;10301;50.832;4.080;2023-07-31T13:02:42;19.60;99.90
20284;DHT22;10301;50.832;4.080;2023-07-31T13:05:08;19.30;99.90
20284;DHT22;10301;50.832;4.080;2023-07-31T13:07:33;19.30;99.90
20284;DHT22;10301;50.832;4.080;2023-07-31T13:09:59;19.10;99.90
20284;DHT22;10301;50.832;4.080;2023-07-31T13:12:25;18.90;99.90
20284;DHT22;10301;50.832;4.080;2023-07-31T13:14:51;19.00;99.90
20284;DHT22;10301;50.832;4.080;2023-07-31T13:17:17;19.00;99.90
20284;DHT22;10301;50.832;4.080;2023-07-31T13:19:43;18.80;99.90
20284;DHT22;10301;50.832;4.080;2023-07-31T13:22:08;18.90;99.90
20284;DHT22;10301;50.832;4.080;2023-07-31T13:24:34;18.70;99.90
20284;DHT22;10301;50.832;4.080;2023-07-31T13:26:59;18.70;99.90
20284;DHT22;10301;50.832;4.080;2023-07-31T13:29:25;18.70;99.90
20284;DHT22;10301;50.832;4.080;2023-07-31T13:31:52;18.70;99.90
20284;DHT22;10301;50.832;4.080;2023-07-31T13:34:18;18.80;99.90
20284;DHT22;10301;50.832;4.080;2023-07-31T13:36:43;18.70;99.90
20284;DHT22;10301;50.832;4.080;2023-07-31T13:39:09;18.70;99.90
20284;DHT22;10301;50.832;4.080;2023-07-31T13:41:35;18.60;99.90
20284;DHT22;10301;50.832;4.080;2023-07-31T13:44:00;18.70;99.90
20284;DHT22;10301;50.832;4.080;2023-07-31T13:46:26;18.80;99.90
20284;DHT22;10301;50.832;4.080;2023-07-31T13:48:52;18.80;99.90
20284;DHT22;10301;50.832;4.080;2023-07-31T13:51:21;18.70;99.90
20284;DHT22;10301;50.832;4.080;2023-07-31T13:53:47;18.70;99.90
20284;DHT22;10301;50.832;4.080;2023-07-31T13:56:13;18.60;99.90
20284;DHT22;10301;50.832;4.080;2023-07-31T13:58:38;18.60;99.90
20284;DHT22;10301;50.832;4.080;2023-07-31T14:01:04;18.70;99.90
20284;DHT22;10301;50.832;4.080;2023-07-31T14:03:30;18.60;99.90
20284;DHT22;10301;50.832;4.080;2023-07-31T14:05:56;18.50;99.90
20284;DHT22;10301;50.832;4.080;2023-07-31T14:08:22;18.50;99.90
20284;DHT22;10301;50.832;4.080;2023-07-31T14:10:47;18.60;99.90
20284;DHT22;10301;50.832;4.080;2023-07-31T14:13:13;18.70;99.90
20284;DHT22;10301;50.832;4.080;2023-07-31T14:15:42;18.80;99.90
20284;DHT22;10301;50.832;4.080;2023-07-31T14:18:08;19.00;99.90
20284;DHT22;10301;50.832;4.080;2023-07-31T14:20:34;19.00;99.90
20284;DHT22;10301;50.832;4.080;2023-07-31T14:23:00;19.00;99.90
20284;DHT22;10301;50.832;4.080;2023-07-31T14:25:26;19.10;99.90
20284;DHT22;10301;50.832;4.080;2023-07-31T14:27:51;19.00;99.90
20284;DHT22;10301;50.832;4.080;2023-07-31T14:30:17;18.90;99.90
20284;DHT22;10301;50.832;4.080;2023-07-31T14:32:43;18.80;99.90
20284;DHT22;10301;50.832;4.080;2023-07-31T14:35:09;18.70;99.90
20284;DHT22;10301;50.832;4.080;2023-07-31T14:37:40;18.70;99.90
20284;DHT22;10301;50.832;4.080;2023-07-31T14:40:06;18.60;99.90
20284;DHT22;10301;50.832;4.080;2023-07-31T14:42:33;18.60;99.90
20284;DHT22;10301;50.832;4.080;2023-07-31T14:44:59;18.60;99.90
20284;DHT22;10301;50.832;4.080;2023-07-31T14:47:24;18.50;99.90
20284;DHT22;10301;50.832;4.080;2023-07-31T14:49:50;18.40;99.90
20284;DHT22;10301;50.832;4.080;2023-07-31T14:52:16;18.40;99.90
20284;DHT22;10301;50.832;4.080;2023-07-31T14:54:41;18.40;99.90
20284;DHT22;10301;50.832;4.080;2023-07-31T14:57:07;18.50;99.90
20284;DHT22;10301;50.832;4.080;2023-07-31T14:59:33;18.50;99.90
20284;DHT22;10301;50.832;4.080;2023-07-31T15:01:59;18.50;99.90
20284;DHT22;10301;50.832;4.080;2023-07-31T15:04:24;18.50;99.90
20284;DHT22;10301;50.832;4.080;2023-07-31T15:06:51;18.40;99.90
20284;DHT22;10301;50.832;4.080;2023-07-31T15:09:17;18.50;99.90
20284;DHT22;10301;50.832;4.080;2023-07-31T15:11:43;18.60;99.90
20284;DHT22;10301;50.832;4.080;2023-07-31T15:14:08;18.40;99.90
20284;DHT22;10301;50.832;4.080;2023-07-31T15:16:34;18.50;99.90
20284;DHT22;10301;50.832;4.080;2023-07-31T15:19:00;18.50;99.90
20284;DHT22;10301;50.832;4.080;2023-07-31T15:21:25;18.40;99.90
20284;DHT22;10301;50.832;4.080;2023-07-31T15:23:51;18.50;99.90
20284;DHT22;10301;50.832;4.080;2023-07-31T15:26:16;18.50;99.90
20284;DHT22;10301;50.832;4.080;2023-07-31T15:28:46;18.50;99.90
20284;DHT22;10301;50.832;4.080;2023-07-31T15:31:11;18.60;99.90
20284;DHT22;10301;50.832;4.080;2023-07-31T15:33:37;18.60;99.90
20284;DHT22;10301;50.832;4.080;2023-07-31T15:36:03;18.40;99.90
20284;DHT22;10301;50.832;4.080;2023-07-31T15:38:28;18.50;99.90